createdAt,value
2022-10-17T00:01:05.529Z,13.07
2022-10-17T00:05:09.106Z,13.04
2022-10-17T00:09:12.168Z,13.00
2022-10-17T00:13:16.524Z,12.95
2022-10-17T00:17:19.543Z,12.88
2022-10-17T00:21:23.029Z,12.87
2022-10-17T00:25:26.067Z,12.83
2022-10-17T00:29:30.817Z,12.81
2022-10-17T00:33:35.145Z,12.81
2022-10-17T00:37:38.571Z,12.77
2022-10-17T00:41:41.567Z,12.73
2022-10-17T00:45:46.116Z,12.68
2022-10-17T00:49:49.818Z,12.64
2022-10-17T00:53:53.080Z,12.60
2022-10-17T00:57:57.629Z,12.58
2022-10-17T01:02:05.453Z,12.56
2022-10-17T01:06:08.484Z,12.52
2022-10-17T01:10:12.461Z,12.48
2022-10-17T01:14:27.272Z,12.46
2022-10-17T01:18:46.203Z,12.42
2022-10-17T01:23:00.296Z,12.38
2022-10-17T01:27:36.801Z,12.36
2022-10-17T01:31:47.819Z,12.33
2022-10-17T01:35:57.925Z,12.27
2022-10-17T01:40:08.906Z,12.24
2022-10-17T01:44:17.744Z,12.20
2022-10-17T01:48:46.025Z,12.18
2022-10-17T01:52:53.700Z,12.13
2022-10-17T01:57:00.396Z,12.09
2022-10-17T02:01:07.662Z,12.08
2022-10-17T02:05:12.241Z,12.04
2022-10-17T02:09:23.300Z,12.01
2022-10-17T02:13:39.686Z,11.98
2022-10-17T02:17:56.388Z,11.99
2022-10-17T02:22:13.409Z,12.00
2022-10-17T02:26:22.538Z,12.01
2022-10-17T02:30:35.065Z,12.00
2022-10-17T02:34:44.544Z,11.93
2022-10-17T02:38:51.681Z,11.89
2022-10-17T02:42:56.829Z,11.87
2022-10-17T02:47:07.715Z,11.83
2022-10-17T02:51:18.663Z,11.77
2022-10-17T02:55:31.280Z,11.71
2022-10-17T02:59:35.892Z,11.69
2022-10-17T03:03:38.906Z,11.67
2022-10-17T03:07:41.933Z,11.66
2022-10-17T03:11:46.398Z,11.66
2022-10-17T03:15:49.459Z,11.67
2022-10-17T03:19:52.669Z,11.66
2022-10-17T03:23:55.880Z,11.62
2022-10-17T03:28:01.759Z,11.59
2022-10-17T03:32:05.193Z,11.56
2022-10-17T03:36:09.364Z,11.52
2022-10-17T03:40:12.802Z,11.48
2022-10-17T03:44:17.210Z,11.45
2022-10-17T03:48:20.271Z,11.42
2022-10-17T03:52:23.327Z,11.37
2022-10-17T03:56:28.615Z,11.33
2022-10-17T04:00:41.927Z,11.31
2022-10-17T04:04:45.191Z,11.32
2022-10-17T04:08:48.791Z,11.33
2022-10-17T04:13:01.625Z,11.35
2022-10-17T04:17:06.103Z,11.37
2022-10-17T04:21:11.296Z,11.35
2022-10-17T04:25:14.382Z,11.34
2022-10-17T04:29:20.867Z,11.30
2022-10-17T04:33:28.161Z,11.27
2022-10-17T04:37:31.575Z,11.28
2022-10-17T04:41:37.798Z,11.27
2022-10-17T04:45:41.044Z,11.26
2022-10-17T04:49:45.747Z,11.25
2022-10-17T04:53:50.909Z,11.19
2022-10-17T04:57:54.495Z,11.17
2022-10-17T05:01:57.750Z,11.16
2022-10-17T05:06:06.694Z,11.15
2022-10-17T05:10:10.564Z,11.12
2022-10-17T05:14:16.578Z,11.11
2022-10-17T05:18:19.665Z,11.09
2022-10-17T05:22:24.464Z,11.09
2022-10-17T05:26:27.745Z,11.06
2022-10-17T05:30:35.110Z,11.06
2022-10-17T05:34:42.970Z,11.05
2022-10-17T05:38:51.900Z,11.05
2022-10-17T05:42:55.082Z,11.04
2022-10-17T05:46:59.311Z,11.00
2022-10-17T05:51:06.166Z,10.98
2022-10-17T05:55:11.584Z,10.97
2022-10-17T05:59:15.749Z,10.96
2022-10-17T06:03:28.481Z,10.94
2022-10-17T06:07:31.599Z,10.91
2022-10-17T06:11:37.226Z,10.93
2022-10-17T06:15:41.758Z,10.94
2022-10-17T06:19:46.455Z,10.92
2022-10-17T06:23:51.563Z,10.95
2022-10-17T06:28:05.122Z,10.98
2022-10-17T06:32:11.261Z,10.99
2022-10-17T06:36:18.189Z,11.02
2022-10-17T06:40:22.966Z,11.05
2022-10-17T06:44:30.640Z,11.12
2022-10-17T06:48:52.013Z,11.25
2022-10-17T06:53:05.715Z,11.37
2022-10-17T06:57:22.973Z,11.51
2022-10-17T07:01:34.305Z,11.65
2022-10-17T07:05:39.186Z,11.72
2022-10-17T07:09:42.423Z,11.83
2022-10-17T07:13:46.290Z,11.94
2022-10-17T07:17:52.142Z,12.05
2022-10-17T07:21:56.112Z,12.15
2022-10-17T07:26:01.577Z,12.26
2022-10-17T07:30:06.381Z,12.38
2022-10-17T07:34:18.311Z,12.49
2022-10-17T07:38:21.384Z,12.61
2022-10-17T07:42:25.128Z,12.72
2022-10-17T07:46:29.964Z,12.85
2022-10-17T07:50:34.566Z,12.97
2022-10-17T07:54:37.586Z,13.11
2022-10-17T07:58:41.015Z,13.24
2022-10-17T08:02:44.047Z,13.35
2022-10-17T08:06:50.862Z,13.47
2022-10-17T08:10:56.797Z,13.56
2022-10-17T08:15:00.142Z,13.68
2022-10-17T08:19:03.582Z,13.80
2022-10-17T08:23:08.557Z,13.89
2022-10-17T08:27:13.573Z,13.98
2022-10-17T08:31:19.327Z,14.08
2022-10-17T08:35:22.340Z,14.18
2022-10-17T08:39:26.701Z,14.30
2022-10-17T08:43:39.617Z,14.42
2022-10-17T08:47:46.028Z,14.54
2022-10-17T08:51:55.674Z,14.68
2022-10-17T08:56:07.158Z,14.83
2022-10-17T09:00:18.166Z,14.97
2022-10-17T09:04:47.294Z,15.11
2022-10-17T09:09:02.746Z,15.27
2022-10-17T09:13:22.927Z,15.43
2022-10-17T09:17:36.135Z,15.59
2022-10-17T09:21:45.064Z,15.76
2022-10-17T09:25:50.870Z,15.90
2022-10-17T09:30:04.679Z,16.06
2022-10-17T09:34:12.314Z,16.22
2022-10-17T09:38:19.965Z,16.37
2022-10-17T09:42:29.098Z,16.50
2022-10-17T09:46:38.128Z,16.65
2022-10-17T09:50:42.694Z,16.83
2022-10-17T09:54:49.145Z,16.94
2022-10-17T09:58:54.559Z,17.11
2022-10-17T10:03:15.659Z,17.27
2022-10-17T10:07:22.010Z,17.44
2022-10-17T10:11:44.956Z,17.57
2022-10-17T10:15:49.152Z,17.75
2022-10-17T10:19:53.955Z,17.90
2022-10-17T10:24:13.321Z,18.08
2022-10-17T10:28:18.512Z,18.21
2022-10-17T10:32:24.359Z,18.32
2022-10-17T10:36:48.101Z,18.43
2022-10-17T10:40:53.822Z,18.53
2022-10-17T10:45:00.339Z,18.64
2022-10-17T10:49:03.655Z,18.77
2022-10-17T10:53:20.718Z,18.89
2022-10-17T10:57:30.279Z,19.01
2022-10-17T11:01:43.412Z,19.13
2022-10-17T11:05:51.520Z,19.22
2022-10-17T11:09:59.941Z,19.31
2022-10-17T11:14:10.617Z,19.38
2022-10-17T11:18:24.245Z,19.44
2022-10-17T11:22:32.411Z,19.52
2022-10-17T11:26:43.344Z,19.60
2022-10-17T11:30:51.701Z,19.68
2022-10-17T11:34:59.321Z,19.73
2022-10-17T11:39:06.219Z,19.79
2022-10-17T11:43:16.497Z,19.83
2022-10-17T11:47:30.616Z,19.85
2022-10-17T11:52:01.552Z,19.91
2022-10-17T11:56:05.506Z,19.99
2022-10-17T12:00:23.956Z,20.03
2022-10-17T12:04:49.656Z,20.05
2022-10-17T12:08:59.705Z,20.12
2022-10-17T12:13:36.145Z,20.15
2022-10-17T12:17:42.021Z,20.17
2022-10-17T12:22:04.708Z,20.21
2022-10-17T12:26:09.538Z,20.25
2022-10-17T12:30:22.145Z,20.27
2022-10-17T12:34:26.621Z,20.29
2022-10-17T12:38:29.706Z,20.32
2022-10-17T12:42:50.919Z,20.36
2022-10-17T12:46:57.362Z,20.39
2022-10-17T12:55:31.542Z,20.45
2022-10-17T12:59:34.642Z,20.46
2022-10-17T13:03:45.286Z,20.48
2022-10-17T13:07:50.863Z,20.45
2022-10-17T13:11:55.113Z,20.40
2022-10-17T13:15:58.352Z,20.41
2022-10-17T13:20:01.752Z,20.39
2022-10-17T13:24:24.211Z,20.42
2022-10-17T13:28:29.112Z,20.42
2022-10-17T13:32:38.166Z,20.45
2022-10-17T13:36:48.510Z,20.45
2022-10-17T13:41:01.784Z,20.46
2022-10-17T13:45:19.424Z,20.44
2022-10-17T13:49:30.570Z,20.42
2022-10-17T13:53:36.235Z,20.40
2022-10-17T13:57:40.694Z,20.37
2022-10-17T14:01:44.083Z,20.37
2022-10-17T14:06:03.633Z,20.35
2022-10-17T14:10:18.817Z,20.31
2022-10-17T14:14:26.090Z,20.27
2022-10-17T14:18:36.124Z,20.23
2022-10-17T14:22:39.992Z,20.21
2022-10-17T14:26:54.666Z,20.19
2022-10-17T14:31:16.815Z,20.16
2022-10-17T14:35:41.120Z,20.13
2022-10-17T14:39:50.389Z,20.10
2022-10-17T14:43:55.891Z,20.08
2022-10-17T14:48:05.299Z,20.06
2022-10-17T14:52:30.044Z,19.99
2022-10-17T14:56:40.594Z,19.94
2022-10-17T15:00:43.567Z,19.90
2022-10-17T15:04:48.147Z,19.84
2022-10-17T15:08:51.199Z,19.78
2022-10-17T15:12:59.947Z,19.74
2022-10-17T15:17:18.547Z,19.67
2022-10-17T15:21:38.455Z,19.62
2022-10-17T15:25:45.524Z,19.55
2022-10-17T15:29:49.338Z,19.51
2022-10-17T15:33:52.832Z,19.44
2022-10-17T15:37:57.268Z,19.37
2022-10-17T15:42:00.788Z,19.32
2022-10-17T15:46:04.098Z,19.25
2022-10-17T15:50:08.955Z,19.18
2022-10-17T15:58:21.598Z,19.03
2022-10-17T16:02:25.261Z,18.95
2022-10-17T16:06:28.485Z,18.88
2022-10-17T16:10:33.351Z,18.81
2022-10-17T16:14:36.337Z,18.73
2022-10-17T16:18:39.397Z,18.62
2022-10-17T16:22:44.627Z,18.60
2022-10-17T16:26:49.101Z,18.52
2022-10-17T16:30:52.185Z,18.49
2022-10-17T16:34:55.229Z,18.43
2022-10-17T16:38:58.381Z,18.37
2022-10-17T16:43:02.802Z,18.28
2022-10-17T16:47:05.812Z,18.24
2022-10-17T16:51:09.121Z,18.19
2022-10-17T16:55:12.488Z,18.13
2022-10-17T16:59:17.093Z,18.10
2022-10-17T17:03:20.123Z,18.05
2022-10-17T17:07:24.444Z,18.02
2022-10-17T17:11:29.207Z,17.97
2022-10-17T17:15:33.709Z,17.90
2022-10-17T17:19:37.375Z,17.84
2022-10-17T17:23:42.370Z,17.80
2022-10-17T17:27:45.406Z,17.77
2022-10-17T17:31:50.082Z,17.70
2022-10-17T17:35:56.220Z,17.66
2022-10-17T17:39:59.234Z,17.63
2022-10-17T17:44:03.465Z,17.60
2022-10-17T17:48:07.993Z,17.57
2022-10-17T17:52:10.954Z,17.54
2022-10-17T17:56:16.406Z,17.50
2022-10-17T18:00:19.571Z,17.48
2022-10-17T18:04:23.860Z,17.47
2022-10-17T18:08:26.728Z,17.43
2022-10-17T18:12:30.799Z,17.40
2022-10-17T18:16:35.971Z,17.38
2022-10-17T18:20:42.873Z,17.35
2022-10-17T18:24:45.830Z,17.29
2022-10-17T18:28:49.554Z,17.26
2022-10-17T18:32:52.526Z,17.22
2022-10-17T18:36:57.569Z,17.18
2022-10-17T18:41:05.581Z,17.14
2022-10-17T18:45:11.372Z,17.08
2022-10-17T18:49:18.842Z,17.04
2022-10-17T18:53:23.189Z,17.03
2022-10-17T18:57:26.465Z,16.97
2022-10-17T19:01:29.847Z,16.95
2022-10-17T19:05:33.968Z,16.92
2022-10-17T19:09:38.320Z,16.89
2022-10-17T19:13:41.996Z,16.86
2022-10-17T19:17:44.946Z,16.80
2022-10-17T19:21:48.198Z,16.77
2022-10-17T19:25:54.135Z,16.71
2022-10-17T19:29:59.038Z,16.66
2022-10-17T19:34:02.262Z,16.61
2022-10-17T19:38:05.134Z,16.60
2022-10-17T19:42:09.417Z,16.57
2022-10-17T19:46:16.168Z,16.55
2022-10-17T19:50:19.066Z,16.53
2022-10-17T19:54:21.955Z,16.47
2022-10-17T19:58:27.101Z,16.43
2022-10-17T20:02:30.231Z,16.39
2022-10-17T20:06:33.944Z,16.38
2022-10-17T20:10:36.883Z,16.38
2022-10-17T20:14:41.355Z,16.34
2022-10-17T20:18:44.634Z,16.32
2022-10-17T20:22:47.601Z,16.28
2022-10-17T20:26:50.489Z,16.22
2022-10-17T20:30:55.434Z,16.20
2022-10-17T20:34:58.756Z,16.15
2022-10-17T20:39:01.687Z,16.08
2022-10-17T20:43:05.200Z,16.00
2022-10-17T20:47:16.271Z,15.91
2022-10-17T20:51:23.991Z,15.82
2022-10-17T20:55:26.907Z,15.69
2022-10-17T20:59:29.959Z,15.64
2022-10-17T21:03:37.070Z,15.59
2022-10-17T21:07:41.733Z,15.50
2022-10-17T21:11:44.983Z,15.43
2022-10-17T21:15:47.892Z,15.39
2022-10-17T21:19:52.158Z,15.35
2022-10-17T21:23:56.839Z,15.29
2022-10-17T21:27:59.827Z,15.25
2022-10-17T21:32:05.193Z,15.24
2022-10-17T21:36:13.684Z,15.20
2022-10-17T21:40:16.777Z,15.15
2022-10-17T21:44:21.503Z,15.10
2022-10-17T21:48:24.920Z,15.02
2022-10-17T21:52:29.453Z,14.96
2022-10-17T21:56:33.920Z,14.90
2022-10-17T22:00:36.797Z,14.86
2022-10-17T22:04:39.978Z,14.81
2022-10-17T22:08:44.264Z,14.75
2022-10-17T22:12:47.136Z,14.70
2022-10-17T22:16:51.427Z,14.69
2022-10-17T22:20:54.519Z,14.64
2022-10-17T22:24:58.774Z,14.59
2022-10-17T22:29:02.273Z,14.54
2022-10-17T22:33:05.192Z,14.46
2022-10-17T22:37:08.102Z,14.38
2022-10-17T22:41:12.427Z,14.33
2022-10-17T22:45:15.325Z,14.30
2022-10-17T22:49:18.329Z,14.26
2022-10-17T22:53:25.064Z,14.21
2022-10-17T22:57:29.312Z,14.15
2022-10-17T23:01:32.403Z,14.11
2022-10-17T23:05:35.334Z,14.02
2022-10-17T23:09:38.460Z,13.94
2022-10-17T23:13:43.135Z,13.85
2022-10-17T23:17:46.179Z,13.78
2022-10-17T23:21:49.200Z,13.74
2022-10-17T23:25:52.877Z,13.69
2022-10-17T23:29:57.315Z,13.62
2022-10-17T23:34:00.277Z,13.55
2022-10-17T23:38:03.640Z,13.53
2022-10-17T23:42:06.635Z,13.47
2022-10-17T23:46:11.064Z,13.45
2022-10-17T23:50:14.072Z,13.33
2022-10-17T23:54:17.574Z,13.26
2022-10-17T23:58:20.564Z,13.21
